Aviation Digital Data Service (ADDS)

Output produced by METARs form (0244 UTC 26 May 2016)
found at http://www.aviationweather.gov/adds/metars/
 
KLNS 260153Z 24003KT 10SM CLR 22/11 A3010 RMK AO2 SLP190 T02220111
KLNS 252353Z 2600/2624 25006KT P6SM SKC 
     FM260600 VRB02KT P6SM BKN090 OVC150 
     FM261900 20008G14KT P6SM VCSH SCT040 BKN120 
     FM262200 24008KT 5SM -SHRA BR BKN030 OVC050